Latest Weather Observations for Mackay Airport

IDQ60801

Issued at 5:32 pm EST Friday 29 July 2016 (issued every 30 minutes, with the page automatically refreshed every 10 minutes)

About weather observations | Map of weather stations | Latest weather observations for QLD | Other Formats
Station Details ID: 033045 Name: MACKAY AERO Lat: -21.17 Lon: 149.18 Height: 4.7 m
Data from the previous 72 hours. | See also: Recent months at Mackay Airport
Date/Time
EST
Temp
°C
App
Temp
°C
Dew
Point
°C
Rel
Hum
%
Delta-T
°C
Wind Press
QNH
hPa
Press
MSL
hPa
Rain since
9am
mm
Dir  Spd
km/h
Gust
km/h
Spd
kts
Gust
kts
29/05:30pm 19.7 17.3 15.4 76 2.5 SE 22 30 12 16 1018.4 1018.4 0.0
29/05:00pm 20.4 17.5 15.2 72 3.1 SE 24 30 13 16 1018.3 1018.3 0.0
29/04:30pm 21.0 17.8 15.3 70 3.4 SE 26 32 14 17 1018.4 1018.4 0.0
29/04:00pm 21.3 17.6 14.9 67 3.8 SE 28 33 15 18 1018.2 1018.2 0.0
29/03:30pm 21.9 18.3 15.3 66 3.9 SE 28 35 15 19 1018.1 1018.1 0.0
29/03:00pm 22.0 18.1 14.4 62 4.4 SE 28 33 15 18 1018.2 1018.2 0.0
29/02:30pm 22.1 18.1 14.0 60 4.7 SE 28 35 15 19 1018.3 1018.3 0.0
29/02:00pm 22.3 18.1 13.6 58 5.0 SE 28 33 15 18 1018.4 1018.4 0.0
29/01:30pm 22.3 17.2 13.1 56 5.3 SE 32 39 17 21 1018.5 1018.5 0.0
29/01:00pm 22.7 18.2 13.7 56 5.2 SE 30 37 16 20 1018.9 1018.9 0.0
29/12:30pm 23.0 18.6 14.0 57 5.3 SE 30 37 16 20 1019.4 1019.4 0.0
29/12:00pm 22.8 18.8 14.1 58 5.1 SE 28 35 15 19 1019.9 1019.9 0.0
29/11:30am 22.9 19.0 14.5 59 5.0 SE 28 39 15 21 1020.4 1020.4 0.0
29/11:00am 21.8 17.2 12.4 55 5.3 SSE 28 35 15 19 1021.0 1021.0 0.0
29/10:30am 21.3 16.9 11.6 54 5.4 SSE 26 32 14 17 1021.2 1021.2 0.0
29/10:00am 21.2 16.7 11.5 54 5.4 SSE 26 35 14 19 1021.4 1021.4 0.0
29/09:30am 20.7 17.5 11.9 57 4.9 S 20 32 11 17 1021.5 1021.5 0.0
29/09:00am 17.9 15.6 11.9 68 3.3 SSW 15 20 8 11 1021.7 1021.7 0.0
29/08:30am 15.5 13.9 11.7 78 2.1 WSW 11 13 6 7 1021.6 1021.6 0.0
29/08:00am 13.6 11.7 10.6 82 1.6 W 11 13 6 7 1021.5 1021.5 0.0
29/07:30am 11.8 9.9 9.0 83 1.4 W 9 17 5 9 1021.2 1021.2 0.0
29/07:00am 10.4 8.3 8.3 87 1.0 W 9 15 5 8 1021.1 1021.1 0.0
29/06:30am 9.4 7.7 7.5 88 0.9 W 6 9 3 5 1020.6 1020.6 0.0
29/06:00am 9.7 7.5 7.8 88 0.9 W 9 13 5 7 1020.4 1020.4 0.0
29/05:30am 8.9 6.9 7.0 88 0.9 WSW 7 9 4 5 1020.0 1020.0 0.0
29/05:00am 9.2 7.2 7.3 88 0.9 WSW 7 13 4 7 1019.8 1019.8 0.0
29/04:30am 8.9 5.8 7.2 89 0.8 WSW 13 15 7 8 1019.7 1019.7 0.0
29/04:00am 9.0 6.2 7.0 87 0.9 WSW 11 13 6 7 1019.8 1019.8 0.0
29/03:30am 9.5 7.2 7.4 87 1.0 SW 9 13 5 7 1019.9 1019.9 0.0
29/03:00am 9.3 6.2 7.4 88 0.9 SW 13 17 7 9 1019.9 1019.9 0.0
29/02:30am 10.2 6.8 7.6 84 1.2 SSW 15 17 8 9 1020.0 1020.0 0.0
29/02:00am 10.7 7.3 7.8 82 1.4 SSW 15 17 8 9 1020.2 1020.2 0.0
29/01:30am 10.0 7.0 7.6 85 1.1 SW 13 13 7 7 1020.4 1020.4 0.0
29/01:00am 10.2 7.7 8.0 86 1.1 SW 11 15 6 8 1020.7 1020.7 0.0
29/12:30am 10.2 8.0 7.8 85 1.2 SW 9 11 5 6 1021.0 1021.0 0.0
29/12:00am 10.6 8.1 8.2 85 1.2 SW 11 15 6 8 1021.4 1021.4 0.0
 
Date/Time
EST
Temp
°C
App
Temp
°C
Dew
Point
°C
Rel
Hum
%
Delta-T
°C
Wind Press
QNH
hPa
Press
MSL
hPa
Rain since
9am
mm
Dir  Spd
km/h
Gust
km/h
Spd
kts
Gust
kts
28/11:30pm 11.8 10.2 8.6 81 1.6 SW 7 11 4 6 1021.5 1021.5 0.0
28/11:00pm 11.3 8.4 8.3 82 1.5 SW 13 15 7 8 1021.8 1021.8 0.0
28/10:30pm 11.1 9.0 8.1 82 1.5 WSW 9 11 5 6 1022.0 1022.0 0.0
28/10:00pm 12.8 10.5 9.1 78 1.9 SW 11 15 6 8 1021.8 1021.8 0.0
28/09:30pm 12.6 9.8 8.7 77 1.9 SSW 13 15 7 8 1021.9 1021.9 0.0
28/09:00pm 12.1 9.3 8.6 79 1.7 SSW 13 15 7 8 1021.8 1021.8 0.0
28/08:30pm 12.9 10.3 9.4 79 1.8 SSW 13 17 7 9 1021.6 1021.6 0.0
28/08:00pm 13.1 10.4 8.8 75 2.1 SSW 13 15 7 8 1021.4 1021.4 0.0
28/07:30pm 14.2 11.5 8.8 70 2.7 S 13 15 7 8 1021.2 1021.2 0.0
28/07:00pm 16.2 13.6 9.2 63 3.6 S 13 17 7 9 1020.9 1020.9 0.0
28/06:30pm 18.2 14.4 9.0 55 4.8 SSE 19 24 10 13 1020.6 1020.6 0.0
28/06:00pm 18.8 14.2 9.6 55 4.8 SE 24 32 13 17 1020.4 1020.4 0.0
28/05:30pm 19.1 13.9 8.7 51 5.4 SE 26 33 14 18 1020.1 1020.1 0.0
28/05:00pm 19.8 14.0 7.9 46 6.1 SE 28 35 15 19 1019.8 1019.8 0.0
28/04:30pm 20.2 14.0 7.9 45 6.3 SE 30 35 16 19 1019.7 1019.7 0.0
28/04:00pm 20.6 14.6 8.6 46 6.3 SE 30 37 16 20 1019.5 1019.5 0.0
28/03:30pm 20.9 14.5 8.5 45 6.5 SE 32 43 17 23 1019.5 1019.5 0.0
28/03:00pm 21.1 14.1 8.4 44 6.6 SE 35 41 19 22 1019.5 1019.5 0.0
28/02:30pm 21.3 14.9 9.2 46 6.4 ESE 33 41 18 22 1019.7 1019.7 0.0
28/02:00pm 21.0 14.0 8.6 45 6.5 SE 35 43 19 23 1020.0 1020.0 0.0
28/01:30pm 21.4 14.2 7.6 41 7.1 SE 35 43 19 23 1020.3 1020.3 0.0
28/01:00pm 21.4 13.7 6.9 39 7.4 SE 37 48 20 26 1020.8 1020.8 0.0
28/12:30pm 21.8 14.5 8.7 43 6.9 SE 37 48 20 26 1021.1 1021.1 0.0
28/12:00pm 21.9 14.9 8.4 42 7.1 SE 35 46 19 25 1021.4 1021.4 0.0
28/11:30am 22.3 15.6 7.3 38 7.8 SE 32 46 17 25 1021.7 1021.7 0.0
28/11:00am 21.9 15.5 7.0 38 7.6 SSE 30 37 16 20 1022.1 1022.1 0.0
28/10:30am 21.5 14.9 6.2 37 7.7 SSE 30 39 16 21 1022.6 1022.6 0.0
28/10:00am 20.9 13.9 6.1 38 7.4 SSE 32 41 17 22 1022.7 1022.7 0.0
28/09:30am 20.3 15.3 6.6 41 6.9 SSE 22 32 12 17 1022.7 1022.7 0.0
28/09:00am 18.9 15.1 9.7 55 4.9 S 20 28 11 15 1022.5 1022.5 0.0
28/08:30am 17.2 14.4 10.1 63 3.8 SSW 15 20 8 11 1022.5 1022.5 0.0
28/08:00am 15.3 12.8 11.1 76 2.2 SSW 15 17 8 9 1022.4 1022.4 0.0
28/07:30am 12.9 11.7 11.6 92 0.7 SW 9 11 5 6 1022.2 1022.2 0.0
28/07:00am 10.8 8.9 9.2 90 0.8 SW 9 11 5 6 1021.9 1021.9 0.0
28/06:30am 10.5 7.8 9.1 91 0.7 SW 13 13 7 7 1021.5 1021.5 0.0
28/06:00am 10.0 7.0 9.2 95 0.4 SSW 15 15 8 8 1021.3 1021.3 0.0
28/05:30am 10.7 8.9 9.3 91 0.7 SSW 9 11 5 6 1021.1 1021.1 0.0
28/05:00am 11.8 10.8 10.4 91 0.7 SSW 6 6 3 3 1020.8 1020.8 0.0
28/04:30am 11.7 9.6 9.6 87 1.1 SSW 11 13 6 7 1020.6 1020.6 0.0
28/04:00am 13.1 12.0 10.8 86 1.2 SSW 7 7 4 4 1020.5 1020.5 0.0
28/03:30am 12.3 10.8 10.4 88 1.0 SSW 9 11 5 6 1020.6 1020.6 0.0
28/03:00am 14.8 13.1 11.2 79 1.9 SSE 11 13 6 7 1020.6 1020.6 0.0
28/02:30am 14.8 13.2 11.6 81 1.7 S 11 13 6 7 1020.7 1020.7 0.0
28/02:00am 15.2 13.7 11.8 80 1.8 S 11 15 6 8 1020.7 1020.7 0.0
28/01:30am 14.5 12.9 11.7 83 1.5 SSW 11 15 6 8 1020.9 1020.9 0.0
28/01:00am 13.9 13.7 11.9 88 1.1 SSW 4 7 2 4 1020.9 1020.9 0.0
28/12:30am 14.7 13.7 12.2 85 1.4 SSW 9 9 5 5 1020.7 1020.7 0.0
28/12:00am 14.8 13.7 12.1 84 1.5 SSW 9 13 5 7 1020.9 1020.9 0.0
 
Date/Time
EST
Temp
°C
App
Temp
°C
Dew
Point
°C
Rel
Hum
%
Delta-T
°C
Wind Press
QNH
hPa
Press
MSL
hPa
Rain since
9am
mm
Dir  Spd
km/h
Gust
km/h
Spd
kts
Gust
kts
27/11:30pm 15.4 16.0 13.2 87 1.2 SW 2 6 1 3 1020.8 1020.8 0.0
27/11:00pm 16.1 16.6 13.9 87 1.2 SW 4 6 2 3 1020.8 1020.8 0.0
27/10:30pm 15.3 14.2 13.0 86 1.3 SW 11 13 6 7 1020.5 1020.5 0.0
27/10:00pm 16.3 15.3 13.4 83 1.6 S 11 11 6 6 1020.3 1020.3 0.0
27/09:30pm 17.6 17.2 14.1 80 2.0 S 9 9 5 5 1020.3 1020.3 0.0
27/09:00pm 17.6 16.7 13.7 78 2.2 SSW 11 15 6 8 1020.0 1020.0 0.0
27/08:30pm 19.2 18.5 15.5 79 2.2 SSE 13 17 7 9 1019.8 1019.8 0.0
27/08:00pm 18.8 18.9 15.5 81 1.9 S 9 11 5 6 1019.5 1019.5 0.0
27/07:30pm 18.8 18.9 15.5 81 1.9 SSE 9 11 5 6 1019.1 1019.1 0.0
27/07:00pm 20.0 20.0 16.2 79 2.3 SE 11 13 6 7 1018.7 1018.7 0.0
27/06:30pm 20.6 20.2 16.2 76 2.6 SE 13 17 7 9 1018.3 1018.3 0.0
27/06:00pm 20.9 20.1 16.1 74 2.9 SE 15 20 8 11 1018.2 1018.2 0.0
27/05:30pm 21.4 20.5 15.9 71 3.3 ESE 15 19 8 10 1017.7 1017.7 0.0
27/05:00pm 22.0 20.5 15.4 66 3.9 SE 17 22 9 12 1017.4 1017.4 0.0
27/04:30pm 22.4 20.4 15.5 65 4.1 ESE 20 24 11 13 1017.2 1017.2 0.0
27/04:00pm 22.8 20.4 15.4 63 4.4 ESE 22 28 12 15 1016.7 1016.7 0.0
27/03:30pm 23.3 21.0 15.6 62 4.6 ESE 22 28 12 15 1016.5 1016.5 0.0
27/03:00pm 23.4 20.4 14.9 59 5.0 ESE 24 33 13 18 1016.4 1016.4 0.0
27/02:30pm 24.0 21.8 16.8 64 4.4 ESE 24 32 13 17 1016.5 1016.5 0.0
27/02:00pm 24.0 21.2 16.3 62 4.7 ESE 26 32 14 17 1016.6 1016.6 0.0
27/01:30pm 24.1 21.4 15.6 59 5.1 ESE 24 28 13 15 1016.7 1016.7 0.0
27/01:00pm 23.9 22.4 16.7 64 4.4 ESE 20 24 11 13 1017.2 1017.2 0.0
27/12:30pm 23.5 21.6 16.8 66 4.1 ESE 22 28 12 15 1017.7 1017.7 0.0
27/12:00pm 23.6 22.4 17.6 69 3.7 ESE 20 24 11 13 1017.9 1017.9 0.0
27/11:30am 23.3 22.0 16.8 67 4.0 ESE 19 24 10 13 1018.1 1018.1 0.0
27/11:00am 23.0 23.1 17.5 71 3.4 ESE 13 20 7 11 1018.6 1018.6 0.0
27/10:30am 22.8 23.1 17.0 70 3.6 SE 11 17 6 9 1018.7 1018.7 0.0
27/10:00am 22.5 23.0 18.3 77 2.6 SSE 13 19 7 10 1019.1 1019.1 0.0
27/09:30am 21.7 22.3 18.7 83 1.9 SSW 13 17 7 9 1019.4 1019.4 0.0
27/09:00am 20.6 21.8 18.2 86 1.5 SSW 9 13 5 7 1019.3 1019.3 0.0
27/08:30am 19.0 19.1 17.5 91 0.9 SW 13 15 7 8 1019.2 1019.2 0.0
27/08:00am 18.0 18.3 17.0 94 0.6 SW 11 17 6 9 1019.2 1019.2 0.0
27/07:47am 17.6 18.2 16.8 95 0.5 WSW 9 13 5 7 1019.1 1019.1 0.0
27/07:30am 17.2 17.6 16.4 95 0.5 WSW 9 11 5 6 1018.9 1018.9 0.0
27/07:00am 16.1 16.8 16.1 100 0.0 WSW 7 9 4 5 1018.9 1018.9 0.0
27/06:30am 14.9 15.3 14.7 99 0.1 WSW 6 7 3 4 1018.5 1018.5 0.0
27/06:21am 14.3 14.2 14.0 98 0.2 WSW 7 9 4 5 1018.4 1018.4 0.0
27/06:00am 14.5 14.5 14.2 98 0.2 WSW 7 11 4 6 1018.1 1018.1 0.0
27/05:30am 14.7 14.4 14.4 98 0.2 SW 9 11 5 6 1018.1 1018.1 0.0
27/05:00am 15.0 14.1 14.8 99 0.1 SW 13 13 7 7 1018.0 1018.0 0.0
27/04:30am 14.8 14.2 14.6 99 0.1 SW 11 13 6 7 1017.9 1017.9 0.0
27/04:00am 14.8 14.9 14.5 98 0.2 SW 7 9 4 5 1017.7 1017.7 0.0
27/03:30am 14.8 14.5 14.5 98 0.2 SW 9 11 5 6 1017.9 1017.9 0.0
27/03:00am 15.0 14.7 14.5 97 0.3 SW 9 11 5 6 1018.0 1018.0 0.0
27/02:30am 15.7 16.4 15.5 99 0.1 SW 6 7 3 4 1017.9 1017.9 0.0
27/02:00am 15.1 14.9 14.8 98 0.2 SW 9 11 5 6 1018.0 1018.0 0.0
27/01:30am 15.5 15.4 15.0 97 0.3 SW 9 11 5 6 1018.3 1018.3 0.0
27/01:15am 15.7 15.7 15.2 97 0.3 SW 9 11 5 6 1018.4 1018.4 0.0
27/01:00am 16.0 16.1 15.4 96 0.3 SW 9 9 5 5 1018.4 1018.4 0.0
27/12:30am 16.7 17.0 16.1 96 0.4 SW 9 11 5 6 1018.5 1018.5 0.0
27/12:00am 17.2 17.5 16.9 98 0.2 SW 11 13 6 7 1018.3 1018.3 0.0
 
Date/Time
EST
Temp
°C
App
Temp
°C
Dew
Point
°C
Rel
Hum
%
Delta-T
°C
Wind Press
QNH
hPa
Press
MSL
hPa
Rain since
9am
mm
Dir  Spd
km/h
Gust
km/h
Spd
kts
Gust
kts
26/11:43pm 16.7 16.8 16.4 98 0.2 SSW 11 13 6 7 1018.1 1018.1 0.0
26/11:30pm 16.2 16.0 15.6 96 0.3 SSW 11 13 6 7 1018.0 1018.0 0.0
26/11:00pm 16.5 16.4 16.0 97 0.3 SSW 11 13 6 7 1018.0 1018.0 0.0
26/10:30pm 17.1 17.5 16.3 95 0.5 SSW 9 11 5 6 1018.1 1018.1 0.0
26/10:00pm 17.6 17.5 17.0 96 0.4 SSW 13 15 7 8 1017.9 1017.9 0.0
26/09:30pm 17.2 17.3 16.4 95 0.5 SSW 11 13 6 7 1017.7 1017.7 0.0
26/09:00pm 17.8 18.4 16.7 93 0.7 SSW 9 11 5 6 1017.7 1017.7 0.0
26/08:30pm 19.2 19.8 17.7 91 0.9 S 11 13 6 7 1017.5 1017.5 0.0
26/08:00pm 20.3 19.6 18.2 88 1.3 SE 19 24 10 13 1017.4 1017.4 0.0
26/07:30pm 20.4 19.7 18.3 88 1.3 SE 19 24 10 13 1017.2 1017.2 0.0
26/07:00pm 20.5 20.3 18.6 89 1.2 SE 17 22 9 12 1016.8 1016.8 0.0
26/06:30pm 20.2 20.5 18.7 91 0.9 SE 15 19 8 10 1016.6 1016.6 0.0
26/06:00pm 20.5 20.0 18.6 89 1.2 SE 19 22 10 12 1016.4 1016.4 0.0

Other Formats:

Comma delimited format used in spreadsheet applications
http://www.bom.gov.au/fwo/IDQ60801/IDQ60801.95367.axf

JavaScript Object Notation format (JSON) in row-major order
http://www.bom.gov.au/fwo/IDQ60801/IDQ60801.95367.json